Flight Track Log - Related Links

Times and Time Zones

All times are in EDT time to prevent confusion due to time zone crossing. See the SWA558 flight status page for this flight to view local times or setup timezone preferences in your user account.

Time Position Orientation Groundspeed Altitude Reporting Facility
EDT Latitude Longitude Course Direction KTS MPH feet Rate Location/Type
Wed 12:25:56 PM 26.6783 -81.7175 346° North 258 297 5,400  Level Miami Center
Wed 12:26:56 PM 26.7408 -81.7203 358° North 265 305 8,200 2,450 Climbing Miami Center
Wed 12:27:56 PM 26.8178 -81.7281 355° North 270 311 10,300 1,900 Climbing Miami Center
Wed 12:28:56 PM 26.8956 -81.7708 334° Northwest 291 335 12,000 2,200 Climbing Miami Center
Wed 12:29:00 PM 27.0758 -81.7570 340° North  Level FlightAware Approximate
Wed 12:29:56 PM 26.9639 -81.8528 313° West 322 371 14,700  Level Miami Center
Wed 12:30:00 PM 27.1799 -81.7950 347° North  Level FlightAware Approximate
Wed 12:30:56 PM 27.0492 -81.9147 327° Northwest 342 394 16,800  Level Miami Center
Wed 12:31:00 PM 27.2865 -81.8247 346° North  Level FlightAware Approximate
Wed 12:31:56 PM 27.1553 -81.9242 355° North 356 410 17,000  Level Miami Center
Wed 12:32:56 PM 27.2656 -81.9361 355° North 383 441 18,700 1,900 Climbing Miami Center
Wed 12:33:56 PM 27.3778 -81.9481 355° North 398 458 20,800 2,150 Climbing Miami Center
Wed 12:34:56 PM 27.4839 -81.9597 354° North 418 481 23,000 1,450 Climbing Miami Center
Wed 12:35:56 PM 27.5983 -81.9717 355° North 420 483 23,700 1,400 Climbing Miami Center
Wed 12:36:56 PM 27.7333 -81.9872 354° North 428 493 25,800 1,351 Climbing Miami Center
Wed 12:39:07 PM 27.9906 -82.0206 353° North 441 507 28,000 880 Climbing Jacksonville Center
Wed 12:40:07 PM 28.0953 -82.0833 332° Northwest 430 495 28,600 950 Climbing Jacksonville Center
Wed 12:41:07 PM 28.2019 -82.1506 331° Northwest 425 489 29,900 1,650 Climbing Jacksonville Center
Wed 12:42:07 PM 28.3089 -82.2206 330° Northwest 431 496 31,900 1,800 Climbing Jacksonville Center
Wed 12:43:07 PM 28.4136 -82.2861 331° Northwest 436 502 33,500 1,550 Climbing Jacksonville Center
Wed 12:44:07 PM 28.5181 -82.3517 331° Northwest 436 502 35,000 1,450 Climbing Jacksonville Center
Wed 12:45:07 PM 28.6206 -82.4172 331° Northwest 426 490 36,400 1,400 Climbing Jacksonville Center
Wed 12:46:07 PM 28.7314 -82.4806 333° Northwest 412 474 37,800 750 Climbing Jacksonville Center
Wed 12:47:07 PM 28.8486 -82.5156 345° North 412 474 37,900 100 Climbing Jacksonville Center
Wed 12:48:07 PM 28.9633 -82.5508 345° North 420 483 38,000 50 Climbing Jacksonville Center
Wed 12:49:07 PM 29.0825 -82.5836 346° North 426 490 38,000  Level Jacksonville Center
Wed 12:50:07 PM 29.1972 -82.6214 344° North 426 490 38,000  Level Jacksonville Center
Wed 12:51:07 PM 29.3122 -82.6544 346° North 426 490 38,000  Level Jacksonville Center
Wed 12:52:07 PM 29.4272 -82.6875 346° North 426 490 38,000  Level Jacksonville Center
Wed 12:53:07 PM 29.5336 -82.7256 343° North 426 490 38,000  Level Jacksonville Center
Wed 12:54:07 PM 29.6442 -82.7564 346° North 426 490 38,000  Level Jacksonville Center
Wed 12:55:07 PM 29.7611 -82.7922 345° North 421 484 38,000  Level Jacksonville Center
Wed 12:56:07 PM 29.8719 -82.8278 344° North 421 484 38,000  Level Jacksonville Center
Wed 12:57:07 PM 29.9889 -82.8614 346° North 421 484 38,000  Level Jacksonville Center
Wed 12:58:07 PM 30.1142 -82.8950 347° North 416 479 38,000  Level Jacksonville Center
Wed 12:59:07 PM 30.2269 -82.9311 345° North 416 479 38,000  Level Jacksonville Center
Wed 01:00:07 PM 30.3417 -82.9625 347° North 416 479 38,000  Level Jacksonville Center
Wed 01:01:07 PM 30.4544 -82.9986 345° North 416 479 38,000  Level Jacksonville Center
Wed 01:02:07 PM 30.5567 -83.0300 345° North 416 479 38,000  Level Jacksonville Center
Wed 01:03:07 PM 30.6839 -83.0689 345° North 416 479 38,000  Level Jacksonville Center
Wed 01:04:07 PM 30.7903 -83.1031 345° North 421 484 38,000  Level Jacksonville Center
Wed 01:05:07 PM 30.9011 -83.1394 344° North 421 484 38,000  Level Jacksonville Center
Wed 01:06:07 PM 31.0200 -83.1761 345° North 421 484 38,000  Level Jacksonville Center
Wed 01:07:07 PM 31.1367 -83.2131 345° North 421 484 38,000  Level Jacksonville Center
Wed 01:08:07 PM 31.2536 -83.2497 345° North 426 490 38,000  Level Jacksonville Center
Wed 01:10:17 PM 31.5108 -83.3300 345° North 450 518 38,000  Level Atlanta Center
Wed 01:11:17 PM 31.6300 -83.3656 346° North 445 512 38,000  Level Atlanta Center
Wed 01:12:17 PM 31.7492 -83.4039 345° North 440 506 38,000  Level Atlanta Center
Wed 01:13:17 PM 31.8683 -83.4422 345° North 440 506 38,000  Level Atlanta Center
Wed 01:14:17 PM 32.0000 -83.4828 345° North 435 501 38,000  Level Atlanta Center
Wed 01:15:17 PM 32.1150 -83.5214 344° North 435 501 38,000  Level Atlanta Center
Wed 01:16:17 PM 32.2319 -83.5575 345° North 435 501 38,000  Level Atlanta Center
Wed 01:17:17 PM 32.3469 -83.5939 345° North 435 501 38,000  Level Atlanta Center
Wed 01:18:17 PM 32.4619 -83.6328 344° North 435 501 38,000  Level Atlanta Center
Wed 01:19:17 PM 32.5789 -83.6717 344° North 435 501 38,000  Level Atlanta Center
Wed 01:20:17 PM 32.6939 -83.7081 345° North 430 495 38,000  Level Atlanta Center
Wed 01:21:17 PM 32.8086 -83.7447 345° North 430 495 38,000  Level Atlanta Center
Wed 01:22:17 PM 32.9236 -83.7839 344° North 430 495 38,000  Level Atlanta Center
Wed 01:23:17 PM 33.0364 -83.8208 345° North 425 489 38,000  Level Atlanta Center
Wed 01:24:17 PM 33.1469 -83.8578 344° North 417 480 38,000  Level Atlanta Center
Wed 01:25:17 PM 33.2619 -83.8922 346° North 422 486 38,000  Level Atlanta Center
Wed 01:26:17 PM 33.3747 -83.9294 345° North 422 486 38,000  Level Atlanta Center
Wed 01:27:17 PM 33.4894 -83.9667 345° North 417 480 38,000  Level Atlanta Center
Wed 01:28:17 PM 33.6022 -84.0039 345° North 422 486 38,000  Level Atlanta Center
Wed 01:29:17 PM 33.7169 -84.0389 346° North 422 486 38,000  Level Atlanta Center
Wed 01:30:17 PM 33.8339 -84.0789 344° North 428 493 38,000  Level Atlanta Center
Wed 01:31:17 PM 33.9508 -84.1164 345° North 428 493 38,000  Level Atlanta Center
Wed 01:32:17 PM 34.0656 -84.1542 345° North 433 498 38,000  Level Atlanta Center
Wed 01:33:17 PM 34.1825 -84.1944 344° North 433 498 38,000  Level Atlanta Center
Wed 01:34:17 PM 34.2972 -84.2325 345° North 433 498 38,000  Level Atlanta Center
Wed 01:35:17 PM 34.4139 -84.2731 344° North 433 498 38,000  Level Atlanta Center
Wed 01:36:17 PM 34.5286 -84.3086 346° North 433 498 38,000  Level Atlanta Center
Wed 01:37:17 PM 34.6433 -84.3494 344° North 433 498 38,000  Level Atlanta Center
Wed 01:38:17 PM 34.7475 -84.3878 343° North 433 498 38,000  Level Atlanta Center
Wed 01:39:17 PM 34.8642 -84.4261 345° North 433 498 38,000  Level Atlanta Center
Wed 01:40:17 PM 34.9853 -84.4722 343° North 427 491 38,000  Level Atlanta Center
Wed 01:41:17 PM 35.1019 -84.5108 345° North 421 484 38,000  Level Atlanta Center
Wed 01:42:17 PM 35.2144 -84.5472 345° North 421 484 38,000  Level Atlanta Center
Wed 01:43:17 PM 35.3311 -84.5886 344° North 421 484 38,000  Level Atlanta Center
Wed 01:44:17 PM 35.4414 -84.6250 345° North 421 484 38,000  Level Atlanta Center
Wed 01:45:17 PM 35.5539 -84.6642 344° North 421 484 38,000  Level Atlanta Center
Wed 01:46:17 PM 35.6644 -84.7033 344° North 421 484 38,000  Level Atlanta Center
Wed 01:47:17 PM 35.7767 -84.7375 346° North 421 484 38,000  Level Atlanta Center
Wed 01:48:17 PM 35.8911 -84.7897 340° North 421 484 38,000  Level Atlanta Center
Wed 01:50:40 PM 36.1225 -84.9575 330° Northwest 418 481 38,000  Level Indianapolis Center
Wed 01:51:42 PM 36.2389 -84.9942 346° North 430 495 38,000  Level Indianapolis Center
Wed 01:52:43 PM 36.3594 -85.0258 348° North 439 505 38,000  Level Indianapolis Center
Wed 01:53:45 PM 36.4806 -85.0525 350° North 441 507 38,000  Level Indianapolis Center
Wed 01:54:47 PM 36.6003 -85.0803 349° North 438 504 38,000  Level Indianapolis Center
Wed 01:55:48 PM 36.7431 -85.1153 349° North 436 502 38,000  Level Indianapolis Center
Wed 01:56:50 PM 36.8631 -85.1442 349° North 439 505 38,000  Level Indianapolis Center
Wed 01:57:52 PM 36.9836 -85.1719 350° North 438 504 38,000  Level Indianapolis Center
Wed 01:58:53 PM 37.1125 -85.2019 349° North 438 504 38,000 -390 Level Indianapolis Center
Wed 01:59:55 PM 37.2314 -85.2292 350° North 432 497 37,200 -823 Descending Indianapolis Center
Wed 02:00:57 PM 37.3458 -85.2581 349° North 422 486 36,300 -581 Descending Indianapolis Center
Wed 02:01:59 PM 37.4642 -85.2858 349° North 430 495 36,000 -146 Descending Indianapolis Center
Wed 02:03:00 PM 37.5803 -85.3156 349° North 427 491 36,000  Level Indianapolis Center
Wed 02:04:02 PM 37.6972 -85.3436 349° North 425 489 36,000  Level Indianapolis Center
Wed 02:05:04 PM 37.8144 -85.3717 349° North 428 493 36,000  Level Indianapolis Center
Wed 02:06:05 PM 37.9328 -85.4006 349° North 428 493 36,000  Level Indianapolis Center
Wed 02:07:07 PM 38.0503 -85.4292 349° North 430 495 36,000  Level Indianapolis Center
Wed 02:08:09 PM 38.1892 -85.4633 349° North 423 487 36,000  Level Indianapolis Center
Wed 02:09:10 PM 38.3064 -85.4917 349° North 427 491 36,000  Level Indianapolis Center
Wed 02:10:12 PM 38.4242 -85.5206 349° North 429 494 36,000  Level Indianapolis Center
Wed 02:11:13 PM 38.5419 -85.5503 349° North 431 496 36,000  Level Indianapolis Center
Wed 02:12:15 PM 38.6600 -85.5794 349° North 432 497 36,000  Level Indianapolis Center
Wed 02:13:17 PM 38.7794 -85.6097 349° North 436 502 36,000  Level Indianapolis Center
Wed 02:14:18 PM 38.8989 -85.6383 349° North 435 501 36,000 -634 Level Indianapolis Center
Wed 02:15:20 PM 39.0175 -85.6683 349° North 435 501 34,700 -1,805 Descending Indianapolis Center
Wed 02:16:21 PM 39.1581 -85.7047 349° North 428 493 32,300 -2,098 Descending Indianapolis Center
Wed 02:17:23 PM 39.2681 -85.7317 349° North 409 471 30,400 -1,122 Descending Indianapolis Center
Wed 02:18:24 PM 39.3772 -85.7597 349° North 402 463 30,000 -488 Descending Indianapolis Center
Wed 02:19:26 PM 39.4908 -85.7894 349° North 409 471 29,400 -780 Descending Indianapolis Center
Wed 02:20:27 PM 39.6008 -85.8169 349° North 407 468 28,400 -1,024 Descending Indianapolis Center
Wed 02:21:29 PM 39.7217 -85.8481 349° North 404 465 27,300 -1,016 Descending Indianapolis Center
Wed 02:22:31 PM 39.8311 -85.8767 349° North 399 459 26,300 -976 Descending Indianapolis Center
Wed 02:23:32 PM 39.9381 -85.9036 349° North 392 451 25,300 -1,122 Descending Indianapolis Center
Wed 02:24:34 PM 40.0447 -85.9308 349° North 387 445 24,000 -629 Descending Indianapolis Center
Wed 02:25:36 PM 40.1564 -85.9597 349° North 382 440 24,000 -235 Level Indianapolis Center
Wed 02:26:16 PM 40.2272 -85.9786 348° North 379 436 23,600 -594 Descending Chicago Center
Wed 02:27:17 PM 40.3286 -86.0058 348° North 372 428 23,000 -585 Descending Chicago Center
Wed 02:28:19 PM 40.4289 -86.0314 349° North 368 423 22,400 -1,073 Descending Chicago Center
Wed 02:29:20 PM 40.5264 -86.0575 348° North 358 412 20,800 -1,328 Descending Chicago Center
Wed 02:30:21 PM 40.6256 -86.0553 North 357 411 19,700 -1,415 Descending Chicago Center
Wed 02:31:23 PM 40.7222 -86.0522 North 349 402 17,900 -1,610 Descending Chicago Center
Wed 02:32:24 PM 40.8169 -86.0508 North 340 391 16,400 -1,610 Descending Chicago Center
Wed 02:33:26 PM 40.9144 -86.0503 360° North 349 402 14,600 -1,366 Descending Chicago Center
Wed 02:34:27 PM 40.9792 -86.1267 318° Northwest 329 379 13,600 -1,073 Descending Chicago Center
Wed 02:35:29 PM 41.0094 -86.2650 286° West 326 375 12,400 -1,122 Descending Chicago Center
Wed 02:36:30 PM 41.0383 -86.3792 289° West 327 376 11,300 -927 Descending Chicago Center
Wed 02:37:32 PM 41.0939 -86.4803 306° West 338 389 10,500 -634 Descending Chicago Center
Wed 02:38:33 PM 41.1475 -86.5806 305° West 335 386 10,000 -244 Descending Chicago Center
Wed 02:39:35 PM 41.2011 -86.6806 305° West 334 384 10,000  Level Chicago Center
Wed 02:40:36 PM 41.2683 -86.7783 312° West 336 387 10,000  Level Chicago Center
Wed 02:41:38 PM 41.3289 -86.8708 311° West 334 384 10,000 -146 Level Chicago Center
Wed 02:42:39 PM 41.3869 -86.9597 311° West 324 373 9,700 -976 Descending Chicago Center
Wed 02:43:41 PM 41.4419 -87.0456 311° West 310 357 8,000 -1,610 Descending Chicago Center
Wed 02:44:42 PM 41.4956 -87.1306 310° West 306 352 6,400 -1,024 Descending Chicago Center
Wed 02:45:44 PM 41.5144 -87.2411 283° West 272 313 5,900 -634 Descending Chicago Center
Wed 02:46:45 PM 41.4969 -87.3297 255° West 252 290 5,100 -488 Descending Chicago Center
Wed 02:47:47 PM 41.5053 -87.4239 277° West 256 295 4,900 -146 Descending Chicago Center
Wed 02:48:48 PM 41.5236 -87.5156 285° West 258 297 4,800 -488 Descending Chicago Center
Wed 02:49:50 PM 41.5419 -87.6114 284° West 263 303 3,900 -439 Descending Chicago Center
Wed 02:50:51 PM 41.5597 -87.7047 284° West 264 304 3,900  Level Chicago Center
Wed 02:51:53 PM 41.5761 -87.7792 286° West 233 268 3,900  Level Chicago Center
Wed 02:52:54 PM 41.5947 -87.8692 285° West 218 251 3,900 -488 Level Chicago Center
Wed 02:53:56 PM 41.6156 -87.9328 294° West 212 244 2,900 -732 Descending Chicago Center
Wed 02:54:57 PM 41.6625 -87.9089 21° North 203 234 2,400 -244 Descending Chicago Center
Wed 02:55:59 PM 41.6972 -87.8633 44° Northeast 188 216 2,400 -195 Level Chicago Center
Wed 02:57:00 PM 41.7319 -87.8200 43° Northeast 179 206 2,000 -537 Descending Chicago Center
Wed 02:58:02 PM 41.7567 -87.7886 43° Northeast 148 170 1,300 -488 Descending Chicago Center
Wed 02:59:03 PM 41.7864 -87.7519 43° Northeast 139 160 1,000 -295 Descending Chicago Center

Login

Don't have an account? Register now (free) for customized features, flight alerts, and more!